Ana Sayfa
METAR-TAF:

METAR-TAF

Havaalanları :

Hugoton, Kansas, Amerika Birleşik Devletleri

Enlem: 37-09-47N, Boylam: 101-22-14W, yükseklik: 955 m

Güncel hava durumu gözlemi

Rapor saat 18:15 UTC de 38 dakika önce yapıldı.
Rüzgar güneydan 18 kt
Sıcaklık 35°C
Nem 34%
Basınç 1008 hPa
Görüş mesafesi: 16.1 km
Açık gökyüzü

METAR: KHQG 161815Z AUTO 19018KT 10SM CLR 35/17 A2977 RMK AO2 PK WND 18026/50

Saat: 13:53 (18:53 UTC)


TAF: eksik

4.000'den fazla havaalanı için hava durumu gözlemleri ve tahminleri (METAR ve TAF raporları).

Kullanılabilir istasyonlar harita üzerinde sarı ve kırmızı noktalarla gösterilir.

İstasyonun adını görmek için fareyi noktanın üzerinde gezdirin.

Sonrasında hava gözlem ve tahminlerini görmek için tıklayın.

Haritayı değiştirmek için: yaklaştırmak için siyah artı işaretli yeşil düğmeye ve uzaklaştırmak için de eksi işaretli düğmeye hızla tıklayın; bitişik haritalar için yeşil okları kullanın.


METAR-TAF: